AirNav   Free Bose Alto or Rondo audio sunglasses
 
 591 users online  

HL2 Hubbard Landing Seaplane Base
Stockton, Alabama, USA

GOING TO STOCKTON?


FAA INFORMATION EFFECTIVE 05 NOVEMBER 2020

Location

FAA Identifier: HL2
Lat/Long: 31-03-49.0000N 087-52-12.0000W
31-03.816667N 087-52.200000W
31.0636111,-87.8700000
(estimated)
Elevation: 8 ft. / 2 m (estimated)
From city: 5 miles SE of STOCKTON, AL
Time zone: UTC -6 (UTC -5 during Daylight Saving Time)
Zip code: 36579

Seaplane Base Operations

Seaplane Base use: Open to the public
Activation date: 01/2007
Control tower: no
ARTCC: HOUSTON CENTER
FSS: ANNISTON FLIGHT SERVICE STATION
NOTAMs facility: ANB (NOTAM-D service available)
Attendance: SR-SS
Segmented circle: no

Seaplane Base Communications

CTAF: 122.9

Nearby radio navigation aids

VOR radial/distance  VOR name  Freq  Var
BFMr015/28.7BROOKLEY VORTAC112.8004E
GCVr089/31.7GREENE COUNTY VORTAC115.7005E
SJIr046/32.3SEMMES VORTAC115.3005E
MVCr224/35.6MONROEVILLE VORTAC116.8004E

 
NDB name  Hdg/Dist  Freq  Var  ID
WISLE052/28.824801WMOB -- --- -...

Seaplane Base Services

Runway Information

Runway 16W/34W

Dimensions: 6000 x 300 ft. / 1829 x 91 m
Surface: water
RUNWAY 16W  RUNWAY 34W
Traffic pattern: leftleft

Seaplane Base Ownership and Management from official FAA records

Ownership: Privately-owned
Owner: PAUL L BRYARS, JR
9100 HUBBARDS LANDING ROAD
STOCKTON, AL 36579
Phone 251-937-5726
Manager: PAUL L. BRYARS JR.
9100 HUBBARD LANDING ROAD
STOCKTON, AL 36579
Phone 251-937-5726

Additional Remarks

TOUR BUOYS IN FRONT OF RAMP AREA.
FOR CD CTC MOBILE APCH AT 251-662-6236, WHEN APCH CLSD CTC HOUSTON ARTCC AT 281-230-5622.

Instrument Procedures

There are no published instrument procedures at HL2.

Some nearby airports with instrument procedures:

1R8 - Bay Minette Municipal Airport (12 nm S)
0R1 - Atmore Municipal Airport (22 nm E)
4R3 - Jackson Municipal Airport (24 nm N)
KBFM - Mobile Downtown Airport (28 nm S)
5R1 - Roy Wilcox Airport (29 nm NW)
 
Loc | Ops | Rwys | IFR | FBO | Links
Com | Nav | Svcs | Stats | Notes

Continental Services
AirBoss

 
Area around HL2 (Hubbard Landing Seaplane Base)
 
Road maps at: MapQuest Bing Google
 
Aerial photo
No photo
 
Sectional chart

 
Airport distance calculator
Flying to Hubbard Landing Seaplane Base? Find the distance to fly.

From to HL2

Sunrise and sunset
Times for 28-Nov-2020
 Local
(UTC-6)
 Zulu
(UTC)
Morning civil twilight06:0512:05
Sunrise06:3112:31
Sunset16:4822:48
Evening civil twilight17:1423:14

Current date and time
Zulu (UTC)  29-Nov-2020 05:45:47
Local (UTC-6)  28-Nov-2020 23:45:47
 
METAR
KBFM 
29nm S 
290453Z AUTO 07007KT 10SM -RA BKN110 17/15 A3006 RMK AO2 SLP178 P0001 T01720150
KMOB 
30nm SW 
290456Z 02004KT 10SM FEW110 15/14 A3006 RMK AO2 RAB19E39 SLP177 P0000 T01500144
KCQF 
36nm S 
290535Z AUTO 00000KT BKN110 15/15 A3004 RMK AO2 PWINO
KGZH 
47nm NE 
290453Z AUTO 00000KT 10SM CLR 15/13 A3007 RMK AO2 SLP181 T01500128
KNSE 
49nm SE 
290456Z AUTO 00000KT 10SM FEW085 BKN110 16/14 A3005 RMK AO2 SLP163 T01560144 PNO $
KNDZ 
49nm SE 
290356Z AUTO 01005KT 10SM CLR 17/15 A3007 RMK AO2 SLP169 T01670150 $
KPQL 
50nm SW 
290453Z AUTO 00000KT 10SM -RA OVC110 17/15 A3006 RMK AO2 RAE18B51 SLP179 P0001 T01720150
KPNS 
50nm SE 
290453Z AUTO 03004KT 10SM -RA BKN120 17/16 A3005 RMK AO2 SLP178 P0002 T01670156
TAF
KBFM 
29nm S 
290245Z 2903/2924 01009KT P6SM SCT015 OVC100 FM290700 04004KT P6SM VCSH SCT025 OVC080 FM290900 04007KT 6SM SHRA OVC030 FM291300 06007KT 5SM SHRA OVC006
KMOB 
30nm SW 
290244Z 2903/2924 02005KT P6SM SCT015 OVC100 FM290700 04004KT P6SM VCSH SCT025 OVC080 FM290900 05005KT 6SM SHRA OVC030 FM291200 06006KT 5SM SHRA OVC007
NOTAMs
Click for the latest NOTAMs
NOTAMs are issued by the DoD/FAA and will open in a separate window not controlled by AirNav.

 

 
 

Would you like to see your business listed on this page?

 If your business provides an interesting product or service to pilots, flight crews, aircraft, or users of the Hubbard Landing Seaplane Base, you should consider listing it here.  To start the listing process, click on the button below
 
Add a business
 

Other Pages about Hubbard Landing Seaplane Base

Update a link
 
Copyright © AirNav, LLC. All rights reserved. Privacy Policy  Contact